Time;durP1;ratioP1;P1;durP2;ratioP2;P2;SDS_P1;SDS_P2;PMS_P1;PMS_P2;Temp;Humidity;BMP_temperature;BMP_pressure;BME280_temperature;BME280_humidity;BME280_pressure;Samples;Min_cycle;Max_cycle;Signal;HPM_P1;HPM_P2
2021/06/13 00:01:13;;;;;;;11.40;4.47;;;;;;;22.01;48.60;102797.53;4997577;28;20037;-93
2021/06/13 00:03:38;;;;;;;7.82;4.28;;;;;;;21.98;48.81;102794.94;5007136;28;20090;-93
2021/06/13 00:06:05;;;;;;;10.63;4.20;;;;;;;22.00;48.39;102794.94;5006903;28;20086;-93
2021/06/13 00:08:30;;;;;;;7.82;4.22;;;;;;;22.01;48.27;102794.06;4997893;28;20034;-94
2021/06/13 00:10:57;;;;;;;11.55;4.43;;;;;;;22.01;48.58;102786.19;4996850;28;20063;-91
2021/06/13 00:13:23;;;;;;;8.52;4.40;;;;;;;22.00;49.06;102787.06;4997238;28;20025;-93
2021/06/13 00:15:49;;;;;;;8.70;3.78;;;;;;;22.02;48.87;102787.97;4997737;28;20489;-92
2021/06/13 00:18:14;;;;;;;6.35;4.35;;;;;;;22.02;48.63;102790.56;4998783;28;20026;-89
2021/06/13 00:20:40;;;;;;;9.60;4.43;;;;;;;21.97;48.46;102783.56;4995998;28;20037;-90
2021/06/13 00:23:06;;;;;;;7.50;4.18;;;;;;;21.98;48.54;102785.31;4996381;28;20081;-91
2021/06/13 00:25:32;;;;;;;6.53;3.97;;;;;;;21.98;48.45;102780.06;4996106;28;20030;-91
2021/06/13 00:27:57;;;;;;;7.70;3.90;;;;;;;21.99;48.51;102780.94;4995943;28;20026;-91
2021/06/13 00:30:23;;;;;;;12.43;4.85;;;;;;;21.98;48.24;102781.81;4996008;28;20062;-91
2021/06/13 00:32:49;;;;;;;7.53;3.72;;;;;;;21.98;48.16;102782.69;4996289;28;20053;-90
2021/06/13 00:35:15;;;;;;;7.03;4.18;;;;;;;21.98;48.30;102793.16;4979754;28;20468;-90
2021/06/13 00:37:41;;;;;;;7.35;4.05;;;;;;;21.98;48.54;102787.94;4996060;28;20030;-91
2021/06/13 00:40:08;;;;;;;9.95;4.25;;;;;;;22.00;48.74;102781.84;4979826;28;20038;-91
2021/06/13 00:42:34;;;;;;;9.57;4.78;;;;;;;22.01;48.67;102784.44;4996087;28;20027;-91
2021/06/13 00:45:00;;;;;;;10.45;4.47;;;;;;;22.00;48.38;102785.31;4997357;28;20057;-91
2021/06/13 00:47:25;;;;;;;9.05;4.18;;;;;;;21.98;48.00;102787.06;5004774;28;20030;-90
2021/06/13 00:49:51;;;;;;;8.48;4.35;;;;;;;21.98;48.30;102781.81;4984603;28;20027;-90
2021/06/13 00:52:16;;;;;;;7.53;4.13;;;;;;;21.99;48.54;102788.78;4979439;28;20519;-90
2021/06/13 00:54:42;;;;;;;7.93;4.35;;;;;;;22.03;48.64;102787.06;4995171;28;20027;-90
2021/06/13 00:57:08;;;;;;;7.20;3.53;;;;;;;22.03;49.36;102790.56;4995081;28;20570;-92
2021/06/13 00:59:33;;;;;;;7.20;4.18;;;;;;;22.01;48.97;102800.16;4979411;28;20030;-90
2021/06/13 01:01:59;;;;;;;8.68;3.83;;;;;;;21.96;48.72;102805.41;4995312;28;20121;-91
2021/06/13 01:04:24;;;;;;;7.82;4.18;;;;;;;21.96;48.44;102810.63;4979028;28;20053;-90
2021/06/13 01:07:15;;;;;;;7.88;3.92;;;;;;;21.96;48.53;102794.91;4984186;28;20023;-92
2021/06/13 01:09:55;;;;;;;9.25;4.00;;;;;;;21.95;48.50;102795.78;5001231;28;20041;-92
2021/06/13 01:12:26;;;;;;;7.90;3.90;;;;;;;21.95;48.29;102800.16;5001254;28;20041;-91
2021/06/13 01:15:09;;;;;;;6.47;3.50;;;;;;;21.96;48.42;102801.91;5002112;28;20193;-91
2021/06/13 01:17:37;;;;;;;6.00;3.67;;;;;;;21.96;48.46;102808.03;5000973;28;20081;-92
2021/06/13 01:20:21;;;;;;;9.82;4.32;;;;;;;21.94;48.17;102795.78;5000220;28;20030;-92
2021/06/13 01:23:14;;;;;;;7.32;3.90;;;;;;;21.96;48.25;102804.53;5000638;28;20026;-91
2021/06/13 01:26:13;;;;;;;7.20;3.80;;;;;;;21.97;48.27;102796.69;4999890;28;20034;-92
2021/06/13 01:28:51;;;;;;;10.68;3.80;;;;;;;21.97;48.45;102807.16;4999133;28;20853;-93
2021/06/13 01:31:18;;;;;;;7.05;3.97;;;;;;;21.96;48.23;102805.41;5010237;28;20033;-91
2021/06/13 01:33:47;;;;;;;8.43;3.90;;;;;;;21.97;48.29;102799.31;5004695;28;20447;-90
2021/06/13 01:36:15;;;;;;;8.23;4.25;;;;;;;21.97;48.29;102796.69;4996655;28;20046;-93
2021/06/13 01:38:41;;;;;;;8.25;4.07;;;;;;;21.98;48.43;102787.94;4996862;28;20030;-91
2021/06/13 01:41:10;;;;;;;8.85;4.07;;;;;;;21.94;48.19;102786.16;4996336;28;20058;-90
2021/06/13 01:43:37;;;;;;;10.55;4.18;;;;;;;21.93;48.23;102788.81;4995362;28;20058;-94
2021/06/13 01:46:04;;;;;;;7.65;4.28;;;;;;;21.92;48.15;102782.66;4995777;28;20434;-93
2021/06/13 01:48:33;;;;;;;7.75;3.70;;;;;;;21.91;48.17;102783.56;4996045;28;20444;-94
2021/06/13 01:51:01;;;;;;;7.75;3.65;;;;;;;21.92;48.08;102779.16;4997350;28;20022;-93
2021/06/13 01:53:28;;;;;;;7.15;3.67;;;;;;;21.93;47.51;102787.06;5001275;28;20042;-91
2021/06/13 01:55:54;;;;;;;6.93;3.65;;;;;;;21.93;48.06;102780.94;5003942;28;20467;-93
2021/06/13 01:58:22;;;;;;;6.68;3.80;;;;;;;21.96;48.13;102778.31;5012481;28;20045;-94
2021/06/13 02:00:49;;;;;;;7.78;3.80;;;;;;;21.96;48.08;102778.31;4988052;28;20101;-93
2021/06/13 02:03:16;;;;;;;10.05;3.97;;;;;;;21.93;48.00;102779.19;4998820;28;20096;-94
2021/06/13 02:05:43;;;;;;;7.60;3.83;;;;;;;21.92;47.87;102785.28;4999179;28;20385;-93
2021/06/13 02:08:10;;;;;;;7.90;3.90;;;;;;;21.94;48.16;102788.78;4999406;28;20081;-95
2021/06/13 02:10:37;;;;;;;6.65;3.72;;;;;;;21.93;48.08;102786.19;4998950;28;20030;-91
2021/06/13 02:13:03;;;;;;;6.53;3.50;;;;;;;21.93;48.04;102775.69;5001968;28;20090;-94
2021/06/13 02:15:29;;;;;;;8.52;4.00;;;;;;;21.92;48.11;102768.69;5013252;28;20026;-93
2021/06/13 02:17:56;;;;;;;5.95;3.70;;;;;;;21.92;47.98;102776.56;5003208;28;20025;-95
2021/06/13 02:20:25;;;;;;;5.72;3.55;;;;;;;21.91;47.97;102783.56;5001839;28;20026;-94
2021/06/13 02:22:52;;;;;;;7.55;3.63;;;;;;;21.92;47.77;102779.16;5003086;28;20018;-93
2021/06/13 02:25:20;;;;;;;7.65;3.83;;;;;;;21.94;48.05;102790.53;5001648;28;20037;-92
2021/06/13 02:27:46;;;;;;;6.65;3.60;;;;;;;21.90;47.98;102778.28;5000022;28;20022;-92
2021/06/13 02:30:12;;;;;;;7.40;3.65;;;;;;;21.90;48.06;102778.28;5000293;28;20093;-91
2021/06/13 02:32:42;;;;;;;6.20;3.50;;;;;;;21.92;47.99;102780.03;4984062;28;20146;-92
2021/06/13 02:35:11;;;;;;;6.25;3.50;;;;;;;21.92;47.90;102782.66;5001752;28;20027;-91
2021/06/13 02:37:40;;;;;;;5.75;3.60;;;;;;;21.91;47.97;102780.94;5003926;28;20030;-93
2021/06/13 02:40:08;;;;;;;7.70;3.60;;;;;;;21.91;47.97;102775.69;5000823;28;20022;-93
2021/06/13 02:42:34;;;;;;;5.80;3.42;;;;;;;21.90;47.83;102776.53;5005073;28;20089;-94
2021/06/13 02:45:00;;;;;;;9.77;3.60;;;;;;;21.91;47.75;102785.31;5005766;28;20024;-92
2021/06/13 02:47:25;;;;;;;6.68;3.60;;;;;;;21.90;47.65;102784.41;5003169;28;20054;-93
2021/06/13 02:49:52;;;;;;;6.43;3.28;;;;;;;21.90;47.69;102773.03;4986201;28;20485;-93
2021/06/13 02:52:32;;;;;;;7.47;3.60;;;;;;;21.92;47.74;102785.28;5001691;28;20038;-91
2021/06/13 02:55:00;;;;;;;5.88;3.40;;;;;;;21.89;47.61;102785.28;5002200;28;20057;-93
2021/06/13 02:57:32;;;;;;;6.80;3.10;;;;;;;21.89;47.72;102784.41;5000656;28;20046;-91
2021/06/13 03:00:08;;;;;;;6.43;3.08;;;;;;;21.90;47.65;102780.91;5008108;28;20094;-91
2021/06/13 03:02:35;;;;;;;5.68;3.40;;;;;;;21.89;47.92;102787.91;4994574;28;20030;-91
2021/06/13 03:05:03;;;;;;;5.80;3.35;;;;;;;21.91;47.68;102791.41;4993684;28;20129;-91
2021/06/13 03:07:29;;;;;;;7.30;3.28;;;;;;;21.91;47.54;102795.78;4993417;28;20113;-92
2021/06/13 03:09:56;;;;;;;7.43;3.45;;;;;;;21.89;47.56;102793.16;4993384;28;20073;-91
2021/06/13 03:12:21;;;;;;;7.18;3.35;;;;;;;21.89;47.55;102789.66;4993554;28;20018;-91
2021/06/13 03:14:49;;;;;;;6.60;3.90;;;;;;;21.89;47.58;102787.91;4993253;28;20027;-92
2021/06/13 03:17:16;;;;;;;6.72;3.30;;;;;;;21.91;47.54;102783.56;4993845;28;20387;-91
2021/06/13 03:19:43;;;;;;;8.00;3.50;;;;;;;21.91;47.50;102783.56;4993143;28;20081;-91
2021/06/13 03:22:10;;;;;;;6.72;3.30;;;;;;;21.92;47.46;102781.78;4993457;28;20061;-91
2021/06/13 03:24:38;;;;;;;6.10;3.20;;;;;;;21.90;47.39;102784.41;4993387;28;20030;-91
2021/06/13 03:27:06;;;;;;;5.15;3.42;;;;;;;21.90;47.28;102794.88;4993197;28;20018;-91
2021/06/13 03:29:33;;;;;;;6.97;3.50;;;;;;;21.91;47.43;102793.16;4993410;28;20038;-92
2021/06/13 03:32:00;;;;;;;5.97;2.90;;;;;;;21.91;47.14;102795.78;4993403;28;20057;-91
2021/06/13 03:34:26;;;;;;;7.57;3.53;;;;;;;21.92;47.08;102790.53;4993722;28;20034;-91
2021/06/13 03:36:52;;;;;;;6.88;3.30;;;;;;;21.90;47.12;102789.66;4994271;28;20027;-91
2021/06/13 03:39:19;;;;;;;7.35;3.50;;;;;;;21.91;47.07;102791.41;4966744;28;20085;-94
2021/06/13 03:41:46;;;;;;;7.28;3.17;;;;;;;21.92;46.98;102795.78;5006131;28;20026;-94
2021/06/13 03:44:11;;;;;;;6.63;3.10;;;;;;;21.91;46.78;102796.66;5008785;28;20045;-92
2021/06/13 03:46:39;;;;;;;8.05;3.47;;;;;;;21.91;46.83;102796.66;5000948;28;20129;-95
2021/06/13 03:49:05;;;;;;;6.35;3.22;;;;;;;21.90;46.93;102792.25;4996753;28;20033;-92
2021/06/13 03:51:32;;;;;;;7.20;3.20;;;;;;;21.90;46.84;102794.03;4985155;28;20088;-93
2021/06/13 03:54:00;;;;;;;6.82;3.22;;;;;;;21.92;47.08;102795.78;5003803;28;20022;-94
2021/06/13 03:56:49;;;;;;;6.55;3.60;;;;;;;21.92;46.74;102798.38;4999083;28;20085;-93
2021/06/13 03:59:18;;;;;;;6.07;3.13;;;;;;;21.94;46.58;102798.41;5000292;28;20030;-92
2021/06/13 04:01:46;;;;;;;6.68;3.42;;;;;;;21.93;46.57;102805.41;4999067;28;20465;-93
2021/06/13 04:04:12;;;;;;;6.07;3.20;;;;;;;21.93;46.44;102800.16;4999178;28;20054;-93
2021/06/13 04:06:41;;;;;;;8.77;3.42;;;;;;;21.95;46.48;102798.41;4999572;28;20026;-94
2021/06/13 04:09:10;;;;;;;6.13;3.22;;;;;;;21.94;46.49;102798.41;5004159;28;20058;-93
2021/06/13 04:11:36;;;;;;;6.97;3.30;;;;;;;21.92;46.33;102801.00;5000391;28;20018;-93
2021/06/13 04:14:03;;;;;;;7.90;3.42;;;;;;;21.96;46.19;102808.03;5003750;28;20037;-91
2021/06/13 04:16:29;;;;;;;7.43;3.33;;;;;;;21.96;46.16;102807.16;5010690;28;20072;-91
2021/06/13 04:18:56;;;;;;;7.13;3.28;;;;;;;21.95;46.23;102802.78;5016160;28;20022;-91
2021/06/13 04:21:21;;;;;;;7.47;3.65;;;;;;;21.95;46.33;102811.53;5009029;28;20031;-92
2021/06/13 04:23:48;;;;;;;8.25;3.25;;;;;;;21.96;46.11;102810.63;5005491;28;20057;-92
2021/06/13 04:26:17;;;;;;;9.13;3.63;;;;;;;21.96;46.13;102810.63;5013501;28;20035;-91
2021/06/13 04:28:43;;;;;;;7.10;3.58;;;;;;;21.96;46.20;102822.88;5000437;28;20037;-92
2021/06/13 04:31:15;;;;;;;7.00;3.22;;;;;;;21.96;46.17;102829.00;4997083;28;20034;-91
2021/06/13 04:33:43;;;;;;;6.47;3.30;;;;;;;21.97;45.98;102830.75;4997482;28;20469;-92
2021/06/13 04:36:09;;;;;;;7.00;3.40;;;;;;;21.97;46.09;102827.22;4980951;28;20030;-92
2021/06/13 04:38:36;;;;;;;7.45;3.75;;;;;;;21.97;46.23;102828.13;4997699;28;20114;-91
2021/06/13 04:41:02;;;;;;;7.20;3.50;;;;;;;22.00;46.11;102836.88;4998080;28;20030;-92
2021/06/13 04:43:27;;;;;;;7.57;3.45;;;;;;;22.01;46.05;102831.63;4997348;28;20029;-92
2021/06/13 04:45:53;;;;;;;7.90;3.58;;;;;;;22.03;45.74;102829.88;4983202;28;20027;-91
2021/06/13 04:48:19;;;;;;;8.02;3.65;;;;;;;22.07;45.87;102828.16;5002984;28;20027;-92
2021/06/13 04:50:45;;;;;;;8.55;3.97;;;;;;;22.11;46.03;102833.41;4986202;28;20030;-93
2021/06/13 04:53:51;;;;;;;7.05;3.97;;;;;;;22.13;45.74;102833.44;5010212;28;20041;-93
2021/06/13 04:56:45;;;;;;;9.02;3.80;;;;;;;22.17;45.69;102840.44;5009123;28;20511;-92
2021/06/13 04:59:13;;;;;;;8.32;3.78;;;;;;;22.19;45.35;102850.06;5008698;28;20039;-92
2021/06/13 05:05:48;;;;;;;7.07;3.63;;;;;;;22.23;45.39;102850.94;5011618;28;20041;-93
2021/06/13 05:12:18;;;;;;;7.95;3.78;;;;;;;22.27;45.27;102851.84;5013094;28;20036;-93
2021/06/13 05:18:13;;;;;;;8.68;4.13;;;;;;;22.30;45.34;102857.13;5005682;28;20057;-92
2021/06/13 05:20:47;;;;;;;;;;;;;;;22.33;45.20;102857.13;5003313;28;20026;-93
2021/06/13 05:23:18;;;;;;;5.75;3.30;;;;;;;22.34;45.01;102853.59;4985784;28;19924;-93
2021/06/13 05:25:57;;;;;;;8.15;4.10;;;;;;;22.35;45.10;102858.88;4983097;28;20789;-93
2021/06/13 05:32:45;;;;;;;9.55;4.00;;;;;;;22.43;44.89;102868.50;4998987;28;20104;-92
2021/06/13 05:49:24;;;;;;;6.50;3.58;;;;;;;22.62;45.06;102880.78;4959103;29;20078;-91
2021/06/13 06:10:11;;;;;;;8.48;3.38;;;;;;;22.82;44.30;102890.41;4923153;29;20117;-93
2021/06/13 06:12:40;;;;;;;9.10;3.15;;;;;;;22.84;44.08;102893.94;4905125;29;20048;-92
2021/06/13 06:15:07;;;;;;;9.93;3.55;;;;;;;22.79;43.96;102897.41;4888584;29;20059;-91
2021/06/13 06:17:34;;;;;;;11.98;3.75;;;;;;;22.76;43.10;102894.81;4917859;29;20036;-90
2021/06/13 06:20:00;;;;;;;21.83;4.28;;;;;;;22.72;42.36;102892.19;4955455;29;20046;-91
2021/06/13 06:22:26;;;;;;;10.20;4.00;;;;;;;22.72;41.85;102905.31;4956210;28;20493;-90
2021/06/13 06:24:51;;;;;;;7.80;3.97;;;;;;;22.72;41.72;102910.56;4956597;28;20378;-89
2021/06/13 06:27:17;;;;;;;10.20;4.25;;;;;;;22.73;41.63;102907.94;4956140;28;20081;-90
2021/06/13 06:29:42;;;;;;;11.73;4.25;;;;;;;22.75;41.49;102915.78;4956226;28;20023;-90
2021/06/13 06:32:08;;;;;;;11.85;4.75;;;;;;;22.77;41.28;102911.41;4956352;28;20037;-90
2021/06/13 06:34:33;;;;;;;10.98;4.25;;;;;;;22.82;41.11;102919.28;4957379;28;20027;-89
2021/06/13 06:36:59;;;;;;;10.00;4.43;;;;;;;22.83;40.80;102921.94;4968801;28;20114;-89
2021/06/13 06:39:24;;;;;;;10.50;4.50;;;;;;;22.83;40.51;102915.81;4958818;28;20114;-90
2021/06/13 06:41:50;;;;;;;13.05;4.50;;;;;;;22.80;40.76;102911.44;4956104;28;20122;-90
2021/06/13 06:44:16;;;;;;;11.50;4.15;;;;;;;22.87;40.35;102920.19;4940641;29;20057;-90
2021/06/13 06:46:42;;;;;;;14.25;4.57;;;;;;;22.90;40.05;102928.06;4957497;28;20056;-89
2021/06/13 06:49:08;;;;;;;10.10;4.10;;;;;;;22.91;40.13;102927.22;4963385;28;20027;-90
2021/06/13 06:51:34;;;;;;;10.45;3.75;;;;;;;22.92;40.10;102927.19;4967467;28;20437;-89
2021/06/13 06:54:00;;;;;;;10.68;4.20;;;;;;;22.95;39.73;102931.56;4968975;28;20027;-89
2021/06/13 06:56:27;;;;;;;11.05;4.10;;;;;;;22.99;39.38;102934.22;4952926;29;20031;-90
2021/06/13 06:58:55;;;;;;;10.35;4.43;;;;;;;23.04;39.40;102934.25;4963506;28;20047;-90
2021/06/13 07:01:21;;;;;;;8.40;4.00;;;;;;;23.11;39.28;102940.38;4942083;29;20066;-90
2021/06/13 07:03:47;;;;;;;11.38;4.57;;;;;;;23.14;39.05;102954.38;4971508;28;20072;-90
2021/06/13 07:06:13;;;;;;;11.82;5.32;;;;;;;23.17;38.88;102948.28;4995807;28;20469;-91
2021/06/13 07:08:38;;;;;;;13.63;4.20;;;;;;;23.17;38.67;102949.13;5000676;28;20033;-89
2021/06/13 07:11:04;;;;;;;12.40;4.45;;;;;;;23.23;38.39;102939.50;4999522;28;20444;-91
2021/06/13 07:13:30;;;;;;;11.02;4.43;;;;;;;23.25;38.37;102940.38;4996039;28;20353;-90
2021/06/13 07:15:55;;;;;;;14.20;4.43;;;;;;;23.26;38.10;102943.00;4995441;28;20027;-90
2021/06/13 07:18:21;;;;;;;10.85;4.40;;;;;;;23.28;37.98;102948.25;4996458;28;20030;-90
2021/06/13 07:20:46;;;;;;;10.60;4.18;;;;;;;23.31;37.80;102959.63;5003725;28;20034;-88
2021/06/13 07:23:12;;;;;;;7.65;3.92;;;;;;;23.32;37.49;102953.53;4965626;28;20354;-90
2021/06/13 07:25:38;;;;;;;8.98;4.30;;;;;;;23.37;37.62;102950.88;4996806;28;20053;-90
2021/06/13 07:28:05;;;;;;;10.25;4.00;;;;;;;23.38;37.58;102939.50;4998304;28;20469;-89
2021/06/13 07:30:31;;;;;;;9.32;3.75;;;;;;;23.41;37.45;102944.75;4998254;28;20026;-90
2021/06/13 07:32:56;;;;;;;7.82;3.70;;;;;;;23.41;37.70;102943.00;4997815;28;20030;-88
2021/06/13 07:35:22;;;;;;;9.40;3.75;;;;;;;23.41;37.59;102943.00;4998370;28;20029;-89
2021/06/13 07:37:48;;;;;;;9.57;3.60;;;;;;;23.44;37.39;102943.88;4981177;28;20061;-89
2021/06/13 07:40:15;;;;;;;9.27;3.83;;;;;;;23.45;37.36;102949.09;4997392;28;20031;-89
2021/06/13 07:42:43;;;;;;;9.10;3.78;;;;;;;23.44;37.06;102950.00;4997634;28;20057;-90
2021/06/13 07:45:10;;;;;;;11.93;4.00;;;;;;;23.48;37.02;102956.13;4981855;28;20022;-88
2021/06/13 07:47:37;;;;;;;9.15;3.72;;;;;;;23.48;36.87;102961.41;4997816;28;20026;-90
2021/06/13 07:50:08;;;;;;;10.30;3.95;;;;;;;23.48;36.56;102953.50;4998192;28;20030;-90
2021/06/13 07:52:34;;;;;;;7.65;3.45;;;;;;;23.47;36.54;102955.25;4998174;28;20033;-90
2021/06/13 07:55:00;;;;;;;8.60;3.75;;;;;;;23.48;36.51;102949.13;4998810;28;20022;-89
2021/06/13 07:57:25;;;;;;;6.25;3.20;;;;;;;23.44;36.23;102954.38;4999189;28;20545;-90
2021/06/13 07:59:51;;;;;;;6.55;3.55;;;;;;;23.44;36.02;102962.28;4982095;28;20034;-88
2021/06/13 08:02:16;;;;;;;6.60;3.35;;;;;;;23.45;35.76;102971.88;5001462;28;20482;-89
2021/06/13 08:04:47;;;;;;;6.45;3.47;;;;;;;23.49;35.78;102968.38;4997986;28;20050;-89
2021/06/13 08:07:12;;;;;;;8.80;3.17;;;;;;;23.52;35.67;102971.03;4996800;28;20062;-89
2021/06/13 08:09:38;;;;;;;8.00;3.35;;;;;;;23.43;35.32;102966.66;4997070;28;20117;-89
2021/06/13 08:12:04;;;;;;;9.13;3.33;;;;;;;23.41;35.67;102957.91;4997207;28;20026;-89
2021/06/13 08:14:29;;;;;;;8.18;3.47;;;;;;;23.46;35.56;102976.28;4996272;28;20022;-91
2021/06/13 08:16:55;;;;;;;7.22;3.28;;;;;;;23.48;35.39;102983.28;4996516;28;20035;-90
2021/06/13 08:19:20;;;;;;;5.80;3.13;;;;;;;23.48;35.16;102983.28;4996943;28;20042;-90
2021/06/13 08:21:48;;;;;;;6.82;3.22;;;;;;;23.50;34.97;102981.53;4981168;28;20473;-90
2021/06/13 08:24:14;;;;;;;12.00;4.50;;;;;;;23.52;35.13;102981.53;4996997;28;20049;-90
2021/06/13 08:26:39;;;;;;;17.77;3.92;;;;;;;23.52;34.83;102982.41;4996867;28;20370;-90
2021/06/13 08:29:05;;;;;;;10.93;4.15;;;;;;;23.54;34.47;102982.38;4993031;23;20041;-90
2021/06/13 08:31:31;;;;;;;7.72;3.78;;;;;;;23.51;34.82;102979.78;4984381;28;20026;-90
2021/06/13 08:33:57;;;;;;;13.40;3.97;;;;;;;23.51;34.58;102983.28;5017021;28;20408;-89
2021/06/13 08:36:24;;;;;;;11.52;3.60;;;;;;;23.50;34.72;102981.53;4999826;28;20034;-90
2021/06/13 08:38:51;;;;;;;11.98;3.38;;;;;;;23.50;34.42;102976.28;5001405;28;20030;-90
2021/06/13 08:41:17;;;;;;;28.00;6.88;;;;;;;23.49;34.60;102968.38;5017490;28;20072;-91
2021/06/13 08:43:45;;;;;;;27.02;5.75;;;;;;;23.52;37.28;102971.03;5017887;28;20120;-93
2021/06/13 08:46:11;;;;;;;24.20;6.63;;;;;;;23.48;38.73;102978.03;5019808;28;20433;-90
2021/06/13 08:48:37;;;;;;;27.27;6.20;;;;;;;23.48;42.89;102980.66;5029588;28;20022;-93
2021/06/13 08:51:02;;;;;;;20.52;5.90;;;;;;;23.38;44.84;102971.88;5017247;28;20052;-92
2021/06/13 08:53:28;;;;;;;14.50;5.68;;;;;;;23.27;45.74;102964.88;5001387;28;20107;-89
2021/06/13 08:55:54;;;;;;;18.20;5.25;;;;;;;23.15;46.36;102964.00;4982763;22;20066;-90
2021/06/13 08:58:22;;;;;;;19.58;5.07;;;;;;;23.08;46.42;102970.16;4960165;28;20435;-89
2021/06/13 09:00:49;;;;;;;13.27;4.90;;;;;;;23.04;46.80;102964.88;4958285;29;20034;-92
2021/06/13 09:03:18;;;;;;;18.17;5.45;;;;;;;23.02;47.00;102977.13;4942616;29;20034;-91
2021/06/13 09:05:44;;;;;;;14.07;4.63;;;;;;;23.01;46.89;102984.13;4941919;29;20031;-91
2021/06/13 09:08:11;;;;;;;17.70;5.25;;;;;;;22.95;47.21;102973.56;4958196;29;20039;-91
2021/06/13 09:10:40;;;;;;;15.02;4.80;;;;;;;22.95;47.42;102974.47;4957857;29;20031;-91
2021/06/13 09:13:23;;;;;;;12.43;4.80;;;;;;;22.94;47.67;102974.47;4958891;29;20031;-91
2021/06/13 09:15:56;;;;;;;12.57;4.65;;;;;;;22.92;47.76;102981.44;4963074;29;20036;-89
2021/06/13 09:18:37;;;;;;;13.98;4.90;;;;;;;22.91;47.84;102985.84;4975688;28;20079;-92
2021/06/13 09:21:27;;;;;;;11.68;4.57;;;;;;;22.89;48.27;102986.72;4962762;29;20031;-90
2021/06/13 09:23:53;;;;;;;11.13;4.40;;;;;;;22.89;48.11;102982.31;4960062;29;20497;-89
2021/06/13 09:26:19;;;;;;;11.95;3.90;;;;;;;22.88;48.50;102979.69;4944419;29;20031;-91
2021/06/13 09:28:50;;;;;;;9.77;4.20;;;;;;;22.87;48.43;102986.69;4958694;29;20023;-92
2021/06/13 09:31:20;;;;;;;17.17;4.70;;;;;;;22.91;48.32;102984.97;4965654;29;20027;-89
2021/06/13 09:33:50;;;;;;;11.38;4.07;;;;;;;22.88;48.39;102987.56;4966393;29;20062;-91
2021/06/13 09:36:20;;;;;;;9.07;3.80;;;;;;;22.89;48.62;102978.84;4956663;29;20031;-93
2021/06/13 09:38:47;;;;;;;8.73;4.07;;;;;;;22.91;48.58;102988.47;4957713;28;20031;-90
2021/06/13 09:41:15;;;;;;;10.43;4.20;;;;;;;22.89;48.85;102986.72;4956221;29;20031;-90
2021/06/13 09:43:50;;;;;;;8.73;3.72;;;;;;;22.91;48.39;102984.97;4956125;29;20105;-90
2021/06/13 09:46:24;;;;;;;12.20;4.05;;;;;;;22.91;48.56;102982.34;4956251;29;20031;-90
2021/06/13 09:48:59;;;;;;;7.18;3.50;;;;;;;22.92;48.55;102989.31;4956266;28;20447;-91
2021/06/13 09:51:33;;;;;;;8.60;3.50;;;;;;;22.91;48.86;102982.34;4956232;29;20033;-90
2021/06/13 09:54:03;;;;;;;10.10;3.22;;;;;;;22.93;48.69;102977.94;4956467;29;20027;-89
2021/06/13 09:56:37;;;;;;;11.20;4.15;;;;;;;22.93;48.70;102981.47;4922249;29;20074;-91
2021/06/13 09:59:16;;;;;;;8.02;3.78;;;;;;;22.94;48.75;102982.34;4938157;29;20027;-91
2021/06/13 10:05:10;;;;;;;6.40;3.42;;;;;;;22.93;48.56;102973.59;4938856;29;20047;-89
2021/06/13 10:07:35;;;;;;;6.93;3.67;;;;;;;22.93;48.40;102972.69;4937148;29;20024;-91
2021/06/13 10:10:01;;;;;;;9.32;3.50;;;;;;;22.94;48.77;102977.94;4921543;29;20550;-88
2021/06/13 10:12:26;;;;;;;6.13;3.40;;;;;;;22.96;48.59;102972.72;4938526;29;20036;-89
2021/06/13 10:14:52;;;;;;;6.63;3.30;;;;;;;22.96;48.29;102975.34;4926802;29;20039;-92
2021/06/13 10:17:35;;;;;;;4.55;2.80;;;;;;;22.94;48.46;102969.22;4927153;29;20032;-88
2021/06/13 10:20:00;;;;;;;6.35;3.17;;;;;;;22.95;48.16;102968.31;4937982;29;20473;-89
2021/06/13 10:22:27;;;;;;;4.68;2.83;;;;;;;22.97;48.52;102971.81;4938705;29;20056;-88
2021/06/13 10:24:52;;;;;;;7.03;3.20;;;;;;;22.97;48.45;102966.56;4922871;29;20063;-89
2021/06/13 10:27:27;;;;;;;6.50;3.35;;;;;;;22.95;48.40;102969.22;4922379;29;20038;-90
2021/06/13 10:29:53;;;;;;;5.55;3.17;;;;;;;22.98;48.51;102976.22;4936708;29;20106;-89
2021/06/13 10:32:23;;;;;;;7.60;3.30;;;;;;;22.99;48.62;102970.97;4921130;29;20040;-90
2021/06/13 10:34:50;;;;;;;8.02;3.15;;;;;;;23.01;48.48;102976.25;4936545;29;20024;-90
2021/06/13 10:37:15;;;;;;;6.20;3.22;;;;;;;22.98;48.68;102969.22;4937157;29;20435;-90
2021/06/13 10:39:41;;;;;;;5.13;3.10;;;;;;;22.98;48.73;102973.59;4937113;29;20027;-89
2021/06/13 10:42:12;;;;;;;5.28;2.90;;;;;;;22.98;48.65;102976.22;4936280;29;20031;-89
2021/06/13 10:44:50;;;;;;;5.35;2.97;;;;;;;22.99;48.66;102976.22;4936771;29;20027;-89
2021/06/13 10:47:16;;;;;;;5.18;2.97;;;;;;;23.00;48.66;102975.38;4937212;29;20028;-90
2021/06/13 10:49:46;;;;;;;5.20;2.90;;;;;;;23.00;48.52;102980.63;4938617;29;20024;-89
2021/06/13 10:52:23;;;;;;;7.60;3.03;;;;;;;22.99;48.85;102967.44;4938751;29;20055;-89
2021/06/13 10:54:51;;;;;;;4.38;2.50;;;;;;;23.00;48.59;102971.88;4940108;29;20067;-90
2021/06/13 10:57:21;;;;;;;5.30;2.58;;;;;;;23.02;48.82;102974.47;4940345;29;20065;-90
2021/06/13 10:59:47;;;;;;;4.82;2.60;;;;;;;23.01;48.85;102960.50;4949912;29;20028;-87
2021/06/13 11:05:46;;;;;;;4.55;2.53;;;;;;;23.03;48.84;102963.13;4957266;29;20037;-88
2021/06/13 11:08:13;;;;;;;5.97;2.55;;;;;;;23.04;48.82;102970.13;4940426;29;20572;-90
2021/06/13 11:10:39;;;;;;;4.30;2.70;;;;;;;23.04;49.30;102973.63;4942464;29;20035;-90
2021/06/13 11:13:09;;;;;;;4.85;2.30;;;;;;;23.05;49.10;102974.50;4942998;29;20032;-90
2021/06/13 11:15:43;;;;;;;4.22;2.60;;;;;;;23.05;49.86;102970.13;4944492;29;20027;-91
2021/06/13 11:18:19;;;;;;;;;;;;;;;23.06;49.65;102968.38;4944465;29;20122;-91
2021/06/13 11:20:53;;;;;;;5.80;2.35;;;;;;;23.05;49.91;102966.63;4944410;29;19911;-92
2021/06/13 11:23:21;;;;;;;6.25;2.80;;;;;;;23.05;49.63;102975.38;4943081;29;20027;-92
2021/06/13 11:25:48;;;;;;;4.80;2.67;;;;;;;23.04;50.03;102971.00;4942970;29;20019;-92
2021/06/13 11:28:22;;;;;;;4.13;2.17;;;;;;;23.05;49.83;102967.50;4948445;29;20027;-92
2021/06/13 11:31:15;;;;;;;4.85;2.35;;;;;;;23.03;49.44;102961.38;4951994;29;20057;-92
2021/06/13 11:33:49;;;;;;;4.32;2.50;;;;;;;23.04;49.56;102965.75;4943223;29;20031;-88
2021/06/13 11:36:18;;;;;;;4.38;2.33;;;;;;;23.07;49.44;102970.13;4952598;29;20023;-89
2021/06/13 11:38:48;;;;;;;5.80;2.10;;;;;;;23.05;48.84;102964.88;4958045;29;20058;-89
2021/06/13 11:41:29;;;;;;;4.50;2.20;;;;;;;23.06;48.95;102964.00;4959824;29;20050;-92
2021/06/13 11:43:56;;;;;;;4.95;2.30;;;;;;;23.07;48.57;102971.00;4960544;29;20023;-91
2021/06/13 11:46:39;;;;;;;4.32;2.42;;;;;;;23.08;47.92;102961.38;4951999;29;20023;-92
2021/06/13 11:49:10;;;;;;;4.28;2.33;;;;;;;23.08;47.58;102966.63;4947817;29;20378;-90
2021/06/13 11:51:55;;;;;;;3.42;2.03;;;;;;;23.08;46.83;102975.41;4947591;29;20039;-90
2021/06/13 11:54:32;;;;;;;4.63;2.20;;;;;;;23.10;46.79;102971.00;4947768;28;20035;-92
2021/06/13 11:56:59;;;;;;;3.45;2.00;;;;;;;23.11;46.49;102962.25;4966345;29;20047;-89
2021/06/13 11:59:26;;;;;;;5.63;1.80;;;;;;;23.10;46.04;102963.13;4951898;29;20094;-90
2021/06/13 12:01:57;;;;;;;6.38;2.30;;;;;;;23.12;45.55;102968.38;4951124;29;20023;-92
2021/06/13 12:04:23;;;;;;;3.88;1.90;;;;;;;23.14;45.67;102966.63;4936146;29;20031;-89
2021/06/13 12:06:50;;;;;;;4.13;2.35;;;;;;;23.16;45.32;102964.88;4938156;29;20099;-90
2021/06/13 12:09:18;;;;;;;2.80;2.00;;;;;;;23.16;45.11;102957.00;4971447;29;20082;-91
2021/06/13 12:11:45;;;;;;;4.60;1.90;;;;;;;23.17;44.78;102953.53;4956295;29;20027;-90
2021/06/13 12:14:50;;;;;;;3.17;2.25;;;;;;;23.17;44.58;102948.28;4957257;29;20034;-91
2021/06/13 12:17:18;;;;;;;4.10;1.80;;;;;;;23.18;44.43;102937.75;4933606;29;20124;-90
2021/06/13 12:23:31;;;;;;;3.30;1.65;;;;;;;23.23;44.11;102939.50;4970449;29;20086;-90
2021/06/13 12:28:40;;;;;;;3.08;1.70;;;;;;;23.25;43.62;102932.50;4961985;29;20134;-92
2021/06/13 12:31:06;;;;;;;4.10;1.70;;;;;;;23.24;43.79;102922.88;4951133;29;20482;-92
2021/06/13 12:33:36;;;;;;;4.03;1.92;;;;;;;23.25;43.39;102927.25;4938384;29;20035;-92